createdAt,value
2023-05-05T00:00:36.400Z,0.00
2023-05-05T00:01:36.313Z,0.00
2023-05-05T00:02:36.518Z,0.00
2023-05-05T00:03:36.414Z,0.00
2023-05-05T00:04:36.293Z,0.00
2023-05-05T00:05:36.271Z,0.00
2023-05-05T00:06:36.258Z,0.00
2023-05-05T00:07:36.265Z,0.00
2023-05-05T00:08:36.250Z,0.00
2023-05-05T00:09:36.237Z,0.00
2023-05-05T00:10:36.216Z,0.00
2023-05-05T00:11:36.198Z,0.00
2023-05-05T00:12:36.213Z,0.00
2023-05-05T00:13:36.231Z,0.00
2023-05-05T00:14:36.169Z,0.00
2023-05-05T00:15:36.164Z,0.00
2023-05-05T00:16:36.209Z,0.00
2023-05-05T00:17:36.175Z,0.00
2023-05-05T00:18:36.122Z,0.00
2023-05-05T00:19:36.114Z,0.00
2023-05-05T00:20:36.104Z,0.00
2023-05-05T00:21:36.113Z,0.00
2023-05-05T00:22:36.073Z,0.00
2023-05-05T00:23:36.069Z,0.00
2023-05-05T00:24:36.047Z,0.00
2023-05-05T00:25:36.060Z,0.00
2023-05-05T00:26:36.044Z,0.00
2023-05-05T00:27:36.022Z,0.00
2023-05-05T00:28:36.015Z,0.00
2023-05-05T00:29:36.029Z,0.00
2023-05-05T00:30:36.004Z,0.00
2023-05-05T00:31:36.072Z,0.00
2023-05-05T00:32:35.974Z,0.00
2023-05-05T00:33:35.961Z,0.00
2023-05-05T00:34:35.958Z,0.00
2023-05-05T00:35:35.946Z,0.00
2023-05-05T00:36:35.930Z,0.00
2023-05-05T00:37:35.929Z,0.00
2023-05-05T00:38:35.899Z,0.00
2023-05-05T00:39:35.901Z,0.00
2023-05-05T00:40:35.909Z,0.00
2023-05-05T00:41:35.883Z,0.00
2023-05-05T00:42:35.859Z,0.00
2023-05-05T00:43:35.868Z,0.00
2023-05-05T00:44:35.855Z,0.00
2023-05-05T00:45:35.848Z,0.00
2023-05-05T00:46:35.851Z,0.00
2023-05-05T00:47:35.851Z,0.00
2023-05-05T00:48:35.791Z,0.00
2023-05-05T00:49:35.813Z,0.00
2023-05-05T00:50:35.779Z,0.00
2023-05-05T00:51:35.768Z,0.00
2023-05-05T00:52:35.746Z,0.00
2023-05-05T00:53:35.749Z,0.00
2023-05-05T00:54:35.735Z,0.00
2023-05-05T00:55:35.712Z,0.00
2023-05-05T00:56:35.704Z,0.00
2023-05-05T00:57:35.695Z,0.00
2023-05-05T00:58:35.692Z,0.00
2023-05-05T00:59:35.669Z,0.00
2023-05-05T01:00:35.655Z,0.00
2023-05-05T01:01:35.670Z,0.00
2023-05-05T01:02:35.683Z,0.00
2023-05-05T01:03:36.124Z,0.00
2023-05-05T01:04:35.610Z,0.00
2023-05-05T01:05:35.598Z,0.00
2023-05-05T01:06:35.586Z,0.00
2023-05-05T01:07:35.810Z,0.00
2023-05-05T01:08:35.576Z,0.00
2023-05-05T01:09:35.550Z,0.00
2023-05-05T01:10:35.539Z,0.00
2023-05-05T01:11:35.537Z,0.00
2023-05-05T01:12:35.558Z,0.00
2023-05-05T01:13:35.505Z,0.00
2023-05-05T01:14:35.491Z,0.00
2023-05-05T01:15:35.489Z,0.00
2023-05-05T01:16:35.577Z,0.00
2023-05-05T01:17:35.510Z,0.00
2023-05-05T01:18:35.447Z,0.00
2023-05-05T01:19:35.441Z,0.00
2023-05-05T01:20:35.424Z,0.00
2023-05-05T01:21:35.436Z,0.00
2023-05-05T01:22:35.418Z,0.00
2023-05-05T01:23:35.393Z,0.00
2023-05-05T01:24:35.374Z,0.00
2023-05-05T01:25:35.372Z,0.00
2023-05-05T01:26:35.370Z,0.00
2023-05-05T01:27:35.355Z,0.00
2023-05-05T01:28:35.331Z,0.00
2023-05-05T01:29:35.340Z,0.00
2023-05-05T01:30:35.315Z,0.00
2023-05-05T01:31:35.426Z,0.00
2023-05-05T01:32:35.343Z,0.00
2023-05-05T01:33:35.299Z,0.00
2023-05-05T01:34:35.271Z,0.00
2023-05-05T01:35:35.274Z,0.00
2023-05-05T01:36:35.269Z,0.00
2023-05-05T01:37:35.241Z,0.00
2023-05-05T01:38:35.218Z,0.00
2023-05-05T01:39:35.215Z,0.00
2023-05-05T01:40:35.516Z,0.00
2023-05-05T01:41:35.182Z,0.00
2023-05-05T01:42:35.182Z,0.00
2023-05-05T01:43:35.182Z,0.00
2023-05-05T01:44:35.154Z,0.00
2023-05-05T01:45:35.181Z,0.00
2023-05-05T01:46:35.126Z,0.00
2023-05-05T01:47:35.145Z,0.00
2023-05-05T01:48:35.101Z,0.00
2023-05-05T01:49:35.127Z,0.00
2023-05-05T01:52:56.470Z,0.00
2023-05-05T01:53:56.478Z,0.00
2023-05-05T01:54:56.467Z,0.00
2023-05-05T01:55:56.444Z,0.00
2023-05-05T01:56:56.438Z,0.00
2023-05-05T01:57:56.423Z,0.00
2023-05-05T01:58:56.439Z,0.00
2023-05-05T01:59:56.425Z,0.00
2023-05-05T02:00:56.422Z,0.00
2023-05-05T02:01:56.373Z,0.00
2023-05-05T02:02:56.514Z,0.00
2023-05-05T02:03:56.368Z,0.00
2023-05-05T02:04:56.364Z,0.00
2023-05-05T02:05:56.345Z,0.00
2023-05-05T02:06:56.394Z,0.00
2023-05-05T02:07:56.421Z,0.00
2023-05-05T02:08:56.569Z,0.00
2023-05-05T02:09:56.362Z,0.00
2023-05-05T02:10:56.268Z,0.00
2023-05-05T02:11:57.455Z,0.00
2023-05-05T02:12:56.428Z,0.00
2023-05-05T02:13:56.355Z,0.00
2023-05-05T02:14:56.386Z,0.00
2023-05-05T02:15:56.346Z,0.00
2023-05-05T02:16:56.250Z,0.00
2023-05-05T02:17:56.338Z,0.00
2023-05-05T02:18:56.265Z,0.00
2023-05-05T02:19:56.254Z,0.00
2023-05-05T02:20:56.301Z,0.00
2023-05-05T02:21:56.205Z,0.00
2023-05-05T02:22:56.336Z,0.00
2023-05-05T02:23:56.207Z,0.00
2023-05-05T02:24:56.199Z,0.00
2023-05-05T02:25:56.112Z,0.00
2023-05-05T02:26:56.192Z,0.00
2023-05-05T02:27:56.255Z,0.00
2023-05-05T02:28:56.077Z,0.00
2023-05-05T02:29:56.124Z,0.00
2023-05-05T02:30:56.096Z,0.00
2023-05-05T02:31:56.511Z,0.00
2023-05-05T02:32:56.061Z,0.00
2023-05-05T02:33:56.095Z,0.00
2023-05-05T02:34:56.053Z,0.00
2023-05-05T02:35:56.027Z,0.00
2023-05-05T02:36:56.116Z,0.00
2023-05-05T02:37:56.076Z,0.00
2023-05-05T02:38:56.089Z,0.00
2023-05-05T02:39:55.985Z,0.00
2023-05-05T02:40:56.118Z,0.00
2023-05-05T02:41:56.049Z,0.00
2023-05-05T02:42:56.021Z,0.00
2023-05-05T02:43:55.953Z,0.00
2023-05-05T02:44:55.933Z,0.00
2023-05-05T02:45:56.034Z,0.00
2023-05-05T02:46:55.973Z,0.00
2023-05-05T02:47:55.972Z,0.00
2023-05-05T02:48:55.932Z,0.00
2023-05-05T02:49:55.856Z,0.00
2023-05-05T02:50:55.958Z,0.00
2023-05-05T02:51:55.876Z,0.00
2023-05-05T02:52:55.960Z,0.00
2023-05-05T02:53:55.955Z,0.00
2023-05-05T02:54:55.965Z,0.00
2023-05-05T02:55:55.977Z,0.00
2023-05-05T02:56:55.869Z,0.00
2023-05-05T02:57:55.826Z,0.00
2023-05-05T02:58:55.739Z,0.00
2023-05-05T02:59:55.823Z,0.00
2023-05-05T03:00:55.849Z,0.00
2023-05-05T03:01:55.807Z,0.00
2023-05-05T03:02:55.848Z,0.00
2023-05-05T03:03:55.864Z,0.00
2023-05-05T03:04:55.807Z,0.00
2023-05-05T03:05:55.676Z,0.00
2023-05-05T03:06:55.712Z,0.00
2023-05-05T03:07:55.698Z,0.00
2023-05-05T03:08:55.857Z,0.00
2023-05-05T03:09:55.753Z,0.00
2023-05-05T03:10:55.642Z,0.00
2023-05-05T03:11:55.634Z,4.00
2023-05-05T03:12:55.695Z,4.00
2023-05-05T03:13:55.585Z,4.00
2023-05-05T03:14:55.618Z,0.00
2023-05-05T03:15:55.650Z,4.00
2023-05-05T03:16:55.601Z,4.00
2023-05-05T03:17:55.713Z,4.00
2023-05-05T03:18:55.648Z,4.00
2023-05-05T03:19:55.548Z,4.00
2023-05-05T03:20:55.586Z,8.00
2023-05-05T03:21:55.537Z,4.00
2023-05-05T03:22:55.655Z,8.00
2023-05-05T03:23:55.753Z,8.00
2023-05-05T03:24:55.557Z,12.00
2023-05-05T03:25:55.460Z,16.00
2023-05-05T03:26:55.514Z,16.00
2023-05-05T03:27:55.577Z,16.00
2023-05-05T03:28:55.457Z,20.00
2023-05-05T03:29:55.448Z,24.00
2023-05-05T03:30:55.474Z,28.00
2023-05-05T03:31:55.440Z,28.00
2023-05-05T03:32:55.488Z,32.00
2023-05-05T03:33:55.441Z,36.00
2023-05-05T03:34:55.455Z,40.00
2023-05-05T03:35:55.331Z,48.00
2023-05-05T03:36:55.340Z,52.00
2023-05-05T03:37:55.322Z,60.00
2023-05-05T03:38:55.306Z,68.00
2023-05-05T03:39:55.291Z,72.00
2023-05-05T03:40:55.283Z,84.00
2023-05-05T03:41:55.318Z,88.00
2023-05-05T03:42:55.241Z,100.00
2023-05-05T03:43:55.261Z,108.00
2023-05-05T03:44:55.232Z,120.00
2023-05-05T03:45:55.260Z,132.00
2023-05-05T03:46:55.238Z,140.00
2023-05-05T03:47:55.224Z,152.00
2023-05-05T03:48:55.180Z,164.00
2023-05-05T03:49:55.177Z,176.00
2023-05-05T03:50:55.181Z,188.00
2023-05-05T03:51:55.347Z,204.00
2023-05-05T03:52:55.297Z,212.00
2023-05-05T03:53:55.460Z,228.00
2023-05-05T03:54:55.250Z,240.00
2023-05-05T03:55:55.939Z,252.00
2023-05-05T03:56:55.110Z,268.00
2023-05-05T03:57:55.151Z,284.00
2023-05-05T03:58:55.080Z,292.00
2023-05-05T03:59:55.184Z,308.00
2023-05-05T04:00:55.194Z,320.00
2023-05-05T04:01:55.051Z,336.00
2023-05-05T04:02:55.205Z,352.00
2023-05-05T04:03:55.232Z,372.00
2023-05-05T04:04:55.318Z,392.00
2023-05-05T04:05:55.218Z,408.00
2023-05-05T04:06:55.070Z,432.00
2023-05-05T04:07:55.112Z,444.00
2023-05-05T04:08:55.112Z,456.00
2023-05-05T04:09:55.081Z,464.00
2023-05-05T04:10:55.001Z,468.00
2023-05-05T04:11:54.999Z,476.00
2023-05-05T04:12:55.022Z,488.00
2023-05-05T04:13:55.112Z,508.00
2023-05-05T04:14:54.978Z,528.00
2023-05-05T04:15:54.984Z,548.00
2023-05-05T04:16:54.928Z,564.00
2023-05-05T04:17:54.972Z,588.00
2023-05-05T04:18:54.964Z,608.00
2023-05-05T04:19:54.963Z,644.00
2023-05-05T04:20:54.948Z,672.00
2023-05-05T04:21:54.951Z,704.00
2023-05-05T04:22:54.930Z,724.00
2023-05-05T04:23:54.989Z,736.00
2023-05-05T04:24:54.849Z,748.00
2023-05-05T04:25:54.823Z,768.00
2023-05-05T04:26:54.904Z,792.00
2023-05-05T04:27:54.945Z,816.00
2023-05-05T04:28:54.988Z,844.00
2023-05-05T04:29:54.905Z,876.00
2023-05-05T04:30:54.900Z,900.00
2023-05-05T04:31:54.791Z,916.00
2023-05-05T04:32:54.905Z,924.00
2023-05-05T04:33:54.844Z,928.00
2023-05-05T04:34:54.791Z,948.00
2023-05-05T04:35:54.661Z,964.00
2023-05-05T04:36:54.650Z,980.00
2023-05-05T04:37:54.774Z,996.00
2023-05-05T04:38:54.707Z,1016.00
2023-05-05T04:39:54.729Z,1044.00
2023-05-05T04:40:54.670Z,1076.00
2023-05-05T04:41:54.746Z,1104.00
2023-05-05T04:42:54.718Z,1156.00
2023-05-05T04:43:54.615Z,1188.00
2023-05-05T04:44:54.633Z,1240.00
2023-05-05T04:45:54.613Z,1292.00
2023-05-05T04:46:54.746Z,1344.00
2023-05-05T04:47:54.669Z,1404.00
2023-05-05T04:48:54.558Z,1460.00
2023-05-05T04:49:54.599Z,1528.00
2023-05-05T04:50:54.568Z,1592.00
2023-05-05T04:51:54.655Z,1664.00
2023-05-05T04:52:54.617Z,1736.00
2023-05-05T04:53:54.538Z,1816.00
2023-05-05T04:54:54.566Z,1904.00
2023-05-05T04:55:54.523Z,1976.00
2023-05-05T04:56:54.604Z,2032.00
2023-05-05T04:57:54.476Z,2084.00
2023-05-05T04:58:54.466Z,2140.00
2023-05-05T04:59:54.523Z,2188.00
2023-05-05T05:00:54.599Z,2220.00
2023-05-05T05:01:54.431Z,2236.00
2023-05-05T05:02:54.490Z,2244.00
2023-05-05T05:03:54.546Z,2272.00
2023-05-05T05:04:54.455Z,2288.00
2023-05-05T05:05:54.471Z,2296.00
2023-05-05T05:06:56.149Z,2296.00
2023-05-05T05:07:54.363Z,2292.00
2023-05-05T05:08:55.340Z,2288.00
2023-05-05T05:09:54.549Z,2248.00
2023-05-05T05:10:54.319Z,2132.00
2023-05-05T05:11:54.319Z,2112.00
2023-05-05T05:12:54.466Z,2224.00
2023-05-05T05:13:54.384Z,2884.00
2023-05-05T05:14:54.317Z,2540.00
2023-05-05T05:15:54.374Z,2540.00
2023-05-05T05:16:54.514Z,2600.00
2023-05-05T05:17:54.330Z,2780.00
2023-05-05T05:18:54.842Z,3080.00
2023-05-05T05:19:54.626Z,3148.00
2023-05-05T05:20:54.325Z,3104.00
2023-05-05T05:21:54.204Z,3296.00
2023-05-05T05:22:54.250Z,3416.00
2023-05-05T05:23:54.303Z,3484.00
2023-05-05T05:24:54.291Z,3548.00
2023-05-05T05:25:54.207Z,3424.00
2023-05-05T05:26:54.222Z,3324.00
2023-05-05T05:28:06.076Z,3176.00
2023-05-05T05:28:55.221Z,3024.00
2023-05-05T05:29:54.168Z,3128.00
2023-05-05T05:30:54.170Z,3256.00
2023-05-05T05:31:54.242Z,3288.00
2023-05-05T05:32:54.205Z,3352.00
2023-05-05T05:33:54.141Z,3404.00
2023-05-05T05:34:54.114Z,3412.00
2023-05-05T05:35:54.062Z,3464.00
2023-05-05T05:36:54.097Z,3600.00
2023-05-05T05:37:54.115Z,3712.00
2023-05-05T05:38:54.171Z,3704.00
2023-05-05T05:39:54.093Z,3688.00
2023-05-05T05:40:54.053Z,3656.00
2023-05-05T05:41:53.974Z,3600.00
2023-05-05T05:42:54.135Z,3484.00
2023-05-05T05:43:53.969Z,3380.00
2023-05-05T05:44:53.942Z,3280.00
2023-05-05T05:45:53.938Z,3240.00
2023-05-05T05:46:53.969Z,3252.00
2023-05-05T05:47:54.071Z,3248.00
2023-05-05T05:48:53.964Z,3464.00
2023-05-05T05:49:53.908Z,3556.00
2023-05-05T05:50:53.992Z,3596.00
2023-05-05T05:51:53.959Z,3560.00
2023-05-05T05:52:54.532Z,3592.00
2023-05-05T05:53:53.852Z,3680.00
2023-05-05T05:54:53.892Z,3732.00
2023-05-05T05:55:53.859Z,3464.00
2023-05-05T05:56:54.039Z,3888.00
2023-05-05T05:57:53.822Z,3592.00
2023-05-05T05:58:53.859Z,4044.00
2023-05-05T05:59:53.752Z,4072.00
2023-05-05T06:00:53.851Z,4064.00
2023-05-05T06:01:53.850Z,4036.00
2023-05-05T06:02:53.892Z,4044.00
2023-05-05T06:03:53.967Z,3996.00
2023-05-05T06:04:53.768Z,4060.00
2023-05-05T06:05:53.792Z,4080.00
2023-05-05T06:06:53.779Z,4280.00
2023-05-05T06:07:53.750Z,4384.00
2023-05-05T06:08:53.728Z,4464.00
2023-05-05T06:09:53.653Z,4532.00
2023-05-05T06:10:53.818Z,4700.00
2023-05-05T06:11:53.626Z,4864.00
2023-05-05T06:12:53.763Z,4940.00
2023-05-05T06:13:53.618Z,5012.00
2023-05-05T06:14:53.661Z,5136.00
2023-05-05T06:15:53.746Z,5244.00
2023-05-05T06:16:53.684Z,5196.00
2023-05-05T06:17:53.665Z,5292.00
2023-05-05T06:18:53.600Z,4448.00
2023-05-05T06:19:54.588Z,4828.00
2023-05-05T06:20:53.883Z,5180.00
2023-05-05T06:21:53.540Z,6108.00
2023-05-05T06:22:53.520Z,6656.00
2023-05-05T06:23:53.553Z,6712.00
2023-05-05T06:24:53.664Z,6512.00
2023-05-05T06:25:53.498Z,6740.00
2023-05-05T06:26:53.500Z,6772.00
2023-05-05T06:27:53.593Z,6528.00
2023-05-05T06:28:53.451Z,6564.00
2023-05-05T06:29:53.527Z,6392.00
2023-05-05T06:30:53.455Z,5288.00
2023-05-05T06:31:53.491Z,5100.00
2023-05-05T06:32:53.521Z,4292.00
2023-05-05T06:33:53.572Z,4208.00
2023-05-05T06:34:53.511Z,4224.00
2023-05-05T06:35:53.453Z,4364.00
2023-05-05T06:36:53.416Z,4608.00
2023-05-05T06:37:53.417Z,4776.00
2023-05-05T06:38:53.677Z,5304.00
2023-05-05T06:39:53.401Z,5600.00
2023-05-05T06:40:53.369Z,5268.00
2023-05-05T06:41:53.380Z,5480.00
2023-05-05T06:42:53.286Z,5680.00
2023-05-05T06:43:53.449Z,6580.00
2023-05-05T06:44:53.248Z,5744.00
2023-05-05T06:45:53.238Z,5704.00
2023-05-05T06:46:53.282Z,6368.00
2023-05-05T06:47:53.482Z,5708.00
2023-05-05T06:48:53.324Z,5848.00
2023-05-05T06:49:53.224Z,5428.00
2023-05-05T06:50:53.297Z,6072.00
2023-05-05T06:51:53.260Z,5744.00
2023-05-05T06:52:53.374Z,5100.00
2023-05-05T06:53:53.286Z,4660.00
2023-05-05T06:54:53.220Z,4708.00
2023-05-05T06:55:53.224Z,5124.00
2023-05-05T06:56:53.137Z,4340.00
2023-05-05T06:57:53.276Z,4768.00
2023-05-05T06:58:53.142Z,4496.00
2023-05-05T06:59:53.174Z,5332.00
2023-05-05T07:00:53.120Z,5164.00
2023-05-05T07:01:53.205Z,5124.00
2023-05-05T07:02:53.191Z,5112.00
2023-05-05T07:03:53.145Z,5060.00
2023-05-05T07:04:53.056Z,5040.00
2023-05-05T07:05:53.128Z,5080.00
2023-05-05T07:06:53.130Z,5124.00
2023-05-05T07:07:53.117Z,5196.00
2023-05-05T07:08:53.247Z,5236.00
2023-05-05T07:09:53.068Z,5252.00
2023-05-05T07:10:53.051Z,5080.00
2023-05-05T07:11:53.114Z,4396.00
2023-05-05T07:12:52.996Z,4324.00
2023-05-05T07:13:53.047Z,4276.00
2023-05-05T07:14:52.953Z,3992.00
2023-05-05T07:15:53.035Z,4080.00
2023-05-05T07:16:52.941Z,4236.00
2023-05-05T07:17:53.056Z,4784.00
2023-05-05T07:18:53.021Z,5144.00
2023-05-05T07:19:52.958Z,5280.00
2023-05-05T07:20:52.947Z,5296.00
2023-05-05T07:21:52.861Z,5060.00
2023-05-05T07:22:52.881Z,5200.00
2023-05-05T07:23:52.938Z,5092.00
2023-05-05T07:24:52.918Z,5076.00
2023-05-05T07:25:52.931Z,5084.00
2023-05-05T07:26:52.816Z,5088.00
2023-05-05T07:27:52.900Z,5132.00
2023-05-05T07:28:52.784Z,5056.00
2023-05-05T07:29:52.883Z,4964.00
2023-05-05T07:30:52.906Z,5052.00
2023-05-05T07:31:52.936Z,5152.00
2023-05-05T07:32:52.769Z,5396.00
2023-05-05T07:33:52.811Z,4972.00
2023-05-05T07:34:52.805Z,5096.00
2023-05-05T07:35:52.837Z,5452.00
2023-05-05T07:36:52.715Z,5736.00
2023-05-05T07:37:52.745Z,5544.00
2023-05-05T07:38:52.701Z,5648.00
2023-05-05T07:39:52.897Z,5560.00
2023-05-05T07:40:52.822Z,5896.00
2023-05-05T07:41:52.708Z,6148.00
2023-05-05T07:42:52.739Z,5900.00
2023-05-05T07:43:52.683Z,6180.00
2023-05-05T07:44:52.690Z,6380.00
2023-05-05T07:45:52.715Z,6376.00
2023-05-05T07:46:52.589Z,6324.00
2023-05-05T07:47:52.768Z,6312.00
2023-05-05T07:48:52.639Z,6376.00
2023-05-05T07:49:52.560Z,6388.00
2023-05-05T07:50:52.936Z,6604.00
2023-05-05T07:51:52.593Z,6344.00
2023-05-05T07:52:59.301Z,6788.00
2023-05-05T07:53:53.673Z,6664.00
2023-05-05T07:54:52.578Z,6468.00
2023-05-05T07:55:52.537Z,6480.00
2023-05-05T07:56:52.621Z,6532.00
2023-05-05T07:57:52.648Z,6524.00
2023-05-05T07:58:52.547Z,6284.00
2023-05-05T07:59:52.448Z,6348.00
2023-05-05T08:00:52.508Z,6288.00
2023-05-05T08:01:54.861Z,5524.00
2023-05-05T08:02:52.635Z,5924.00
2023-05-05T08:03:52.436Z,6188.00
2023-05-05T08:04:52.329Z,6468.00
2023-05-05T08:05:52.320Z,6712.00
2023-05-05T08:06:52.307Z,6828.00
2023-05-05T08:07:52.309Z,6920.00
2023-05-05T08:08:52.296Z,6728.00
2023-05-05T08:09:52.288Z,7064.00
2023-05-05T08:10:52.271Z,7296.00
2023-05-05T08:11:52.263Z,7296.00
2023-05-05T08:12:52.409Z,6212.00
2023-05-05T08:13:52.251Z,6152.00
2023-05-05T08:14:52.232Z,6468.00
2023-05-05T08:15:52.265Z,8168.00
2023-05-05T08:16:52.217Z,8764.00
2023-05-05T08:17:52.287Z,8776.00
2023-05-05T08:18:52.185Z,8928.00
2023-05-05T08:19:52.163Z,8692.00
2023-05-05T08:20:52.164Z,7492.00
2023-05-05T08:21:52.155Z,8368.00
2023-05-05T08:22:52.144Z,8388.00
2023-05-05T08:23:52.123Z,7220.00
2023-05-05T08:24:52.120Z,7252.00
2023-05-05T08:25:52.114Z,7856.00
2023-05-05T08:26:52.122Z,8536.00
2023-05-05T08:27:52.080Z,9696.00
2023-05-05T08:28:52.170Z,9428.00
2023-05-05T08:29:52.061Z,8740.00
2023-05-05T08:30:52.073Z,8636.00
2023-05-05T08:31:52.119Z,7676.00
2023-05-05T08:32:52.113Z,8020.00
2023-05-05T08:33:52.023Z,7920.00
2023-05-05T08:34:52.008Z,7528.00
2023-05-05T08:35:52.005Z,7324.00
2023-05-05T08:36:51.989Z,7360.00
2023-05-05T08:37:51.969Z,8396.00
2023-05-05T08:38:51.968Z,8744.00
2023-05-05T08:39:51.960Z,9240.00
2023-05-05T08:40:51.961Z,9828.00
2023-05-05T08:41:51.926Z,9836.00
2023-05-05T08:42:51.926Z,9484.00
2023-05-05T08:43:51.914Z,9600.00
2023-05-05T08:44:52.024Z,7832.00
2023-05-05T08:45:51.889Z,7600.00
2023-05-05T08:46:51.937Z,7832.00
2023-05-05T08:47:51.992Z,8408.00
2023-05-05T08:48:51.855Z,10028.00
2023-05-05T08:49:51.850Z,10592.00
2023-05-05T08:50:51.838Z,10528.00
2023-05-05T08:51:51.827Z,9112.00
2023-05-05T08:52:51.821Z,8476.00
2023-05-05T08:53:51.796Z,7216.00
2023-05-05T08:54:51.879Z,6920.00
2023-05-05T08:55:51.776Z,6684.00
2023-05-05T08:56:51.779Z,6212.00
2023-05-05T08:57:51.804Z,5688.00
2023-05-05T08:58:51.757Z,5300.00
2023-05-05T08:59:51.762Z,5132.00
2023-05-05T09:00:51.896Z,4896.00
2023-05-05T09:01:51.709Z,4588.00
2023-05-05T09:02:51.912Z,4460.00
2023-05-05T09:03:52.635Z,4504.00
2023-05-05T09:04:51.676Z,4832.00
2023-05-05T09:05:51.659Z,5256.00
2023-05-05T09:06:51.661Z,5744.00
2023-05-05T09:07:51.649Z,6280.00
2023-05-05T09:08:51.652Z,6604.00
2023-05-05T09:09:51.628Z,6896.00
2023-05-05T09:10:51.612Z,7364.00
2023-05-05T09:11:51.595Z,7960.00
2023-05-05T09:12:51.750Z,8396.00
2023-05-05T09:13:51.585Z,8516.00
2023-05-05T09:14:51.570Z,8288.00
2023-05-05T09:15:51.549Z,7476.00
2023-05-05T09:16:51.667Z,6884.00
2023-05-05T09:17:51.611Z,6820.00
2023-05-05T09:18:51.520Z,7088.00
2023-05-05T09:19:51.512Z,7532.00
2023-05-05T09:20:51.517Z,8100.00
2023-05-05T09:21:51.517Z,8432.00
2023-05-05T09:22:51.488Z,8552.00
2023-05-05T09:23:51.468Z,8200.00
2023-05-05T09:24:51.467Z,7776.00
2023-05-05T09:25:51.445Z,7392.00
2023-05-05T09:26:51.451Z,6928.00
2023-05-05T09:27:51.425Z,6348.00
2023-05-05T09:28:51.412Z,5704.00
2023-05-05T09:29:51.410Z,5008.00
2023-05-05T09:30:51.419Z,4356.00
2023-05-05T09:31:51.396Z,3912.00
2023-05-05T09:32:51.562Z,3524.00
2023-05-05T09:33:51.363Z,3164.00
2023-05-05T09:34:51.354Z,2884.00
2023-05-05T09:35:51.366Z,2884.00
2023-05-05T09:36:51.345Z,3168.00
2023-05-05T09:37:51.326Z,3452.00
2023-05-05T09:38:51.308Z,3528.00
2023-05-05T09:39:51.287Z,3356.00
2023-05-05T09:40:51.318Z,3312.00
2023-05-05T09:41:51.272Z,3644.00
2023-05-05T09:42:51.256Z,4012.00
2023-05-05T09:43:51.256Z,4204.00
2023-05-05T09:44:51.234Z,4048.00
2023-05-05T09:45:51.242Z,3800.00
2023-05-05T09:46:51.486Z,3660.00
2023-05-05T09:47:53.266Z,3736.00
2023-05-05T09:48:51.279Z,3980.00
2023-05-05T09:49:51.197Z,4312.00
2023-05-05T09:50:51.213Z,4712.00
2023-05-05T09:51:51.165Z,5004.00
2023-05-05T09:52:51.144Z,5296.00
2023-05-05T09:53:51.142Z,5872.00
2023-05-05T09:54:51.236Z,6912.00
2023-05-05T09:55:51.117Z,7808.00
2023-05-05T09:56:51.100Z,9452.00
2023-05-05T09:57:51.100Z,9112.00
2023-05-05T09:58:51.080Z,9196.00
2023-05-05T09:59:51.089Z,9156.00
2023-05-05T10:00:51.089Z,9056.00
2023-05-05T10:01:51.122Z,9024.00
2023-05-05T10:02:51.061Z,8344.00
2023-05-05T10:03:51.044Z,7660.00
2023-05-05T10:04:51.085Z,6728.00
2023-05-05T10:05:51.023Z,5704.00
2023-05-05T10:06:50.992Z,4676.00
2023-05-05T10:07:50.980Z,3944.00
2023-05-05T10:08:50.981Z,3424.00
2023-05-05T10:09:50.965Z,3052.00
2023-05-05T10:10:50.952Z,2736.00
2023-05-05T10:11:50.942Z,2452.00
2023-05-05T10:12:50.936Z,2276.00
2023-05-05T10:13:50.929Z,2272.00
2023-05-05T10:14:50.904Z,2516.00
2023-05-05T10:15:50.954Z,2936.00
2023-05-05T10:16:50.911Z,3252.00
2023-05-05T10:18:05.818Z,3380.00
2023-05-05T10:18:51.874Z,3464.00
2023-05-05T10:19:50.937Z,3612.00
2023-05-05T10:20:50.940Z,3568.00
2023-05-05T10:21:53.424Z,3332.00
2023-05-05T10:22:50.913Z,3028.00
2023-05-05T10:23:50.942Z,2800.00
2023-05-05T10:24:50.859Z,2724.00
2023-05-05T10:25:50.890Z,2904.00
2023-05-05T10:26:50.829Z,3332.00
2023-05-05T10:27:50.914Z,3704.00
2023-05-05T10:28:50.791Z,3724.00
2023-05-05T10:29:50.840Z,3392.00
2023-05-05T10:30:50.780Z,3020.00
2023-05-05T10:31:50.932Z,2748.00
2023-05-05T10:33:00.890Z,2596.00
2023-05-05T10:33:51.863Z,2500.00
2023-05-05T10:34:50.729Z,2440.00
2023-05-05T10:35:50.725Z,2496.00
2023-05-05T10:36:50.883Z,2664.00
2023-05-05T10:37:50.742Z,2824.00
2023-05-05T10:38:50.694Z,2964.00
2023-05-05T10:39:50.690Z,3144.00
2023-05-05T10:40:50.732Z,3552.00
2023-05-05T10:41:50.770Z,4280.00
2023-05-05T10:42:50.680Z,5380.00
2023-05-05T10:43:50.711Z,6492.00
2023-05-05T10:44:50.621Z,7280.00
2023-05-05T10:45:50.841Z,7696.00
2023-05-05T10:46:50.711Z,7668.00
2023-05-05T10:47:50.667Z,7208.00
2023-05-05T10:48:50.728Z,6384.00
2023-05-05T10:49:50.638Z,5360.00
2023-05-05T10:50:50.650Z,4596.00
2023-05-05T10:51:50.567Z,4160.00
2023-05-05T10:52:50.730Z,3772.00
2023-05-05T10:53:50.636Z,3520.00
2023-05-05T10:54:50.528Z,3464.00
2023-05-05T10:55:50.612Z,3888.00
2023-05-05T10:56:50.603Z,4864.00
2023-05-05T10:57:50.486Z,6032.00
2023-05-05T10:58:59.763Z,7168.00
2023-05-05T10:59:51.613Z,7940.00
2023-05-05T11:00:50.526Z,8376.00
2023-05-05T11:01:50.461Z,8328.00
2023-05-05T11:02:50.454Z,8228.00
2023-05-05T11:03:50.429Z,8416.00
2023-05-05T11:04:50.590Z,9236.00
2023-05-05T11:05:50.499Z,9112.00
2023-05-05T11:06:50.479Z,9208.00
2023-05-05T11:07:50.434Z,8908.00
2023-05-05T11:08:50.381Z,8372.00
2023-05-05T11:09:50.422Z,8532.00
2023-05-05T11:10:50.415Z,8784.00
2023-05-05T11:11:50.424Z,9624.00
2023-05-05T11:12:50.316Z,8552.00
2023-05-05T11:13:50.369Z,8336.00
2023-05-05T11:14:50.275Z,7588.00
2023-05-05T11:15:50.242Z,7212.00
2023-05-05T11:16:50.246Z,7256.00
2023-05-05T11:17:50.266Z,7500.00
2023-05-05T11:18:50.232Z,7520.00
2023-05-05T11:19:50.242Z,7440.00
2023-05-05T11:20:50.765Z,7160.00
2023-05-05T11:21:50.163Z,6932.00
2023-05-05T11:22:50.156Z,6832.00
2023-05-05T11:23:50.242Z,6868.00
2023-05-05T11:24:50.290Z,6832.00
2023-05-05T11:25:50.164Z,6720.00
2023-05-05T11:26:50.118Z,6716.00
2023-05-05T11:27:50.119Z,6412.00
2023-05-05T11:28:50.110Z,6392.00
2023-05-05T11:29:52.027Z,6884.00
2023-05-05T11:30:50.119Z,6596.00
2023-05-05T11:31:50.057Z,7112.00
2023-05-05T11:32:50.201Z,7484.00
2023-05-05T11:33:50.037Z,7544.00
2023-05-05T11:34:50.028Z,7672.00
2023-05-05T11:35:50.012Z,7588.00
2023-05-05T11:36:50.001Z,7464.00
2023-05-05T11:37:50.013Z,7696.00
2023-05-05T11:38:49.977Z,7880.00
2023-05-05T11:39:49.961Z,8008.00
2023-05-05T11:40:50.107Z,8052.00
2023-05-05T11:41:49.984Z,7972.00
2023-05-05T11:42:49.946Z,8108.00
2023-05-05T11:43:49.925Z,8024.00
2023-05-05T11:44:49.979Z,8208.00
2023-05-05T11:45:49.911Z,8436.00
2023-05-05T11:46:49.904Z,8632.00
2023-05-05T11:47:49.922Z,8576.00
2023-05-05T11:48:49.866Z,8812.00
2023-05-05T11:49:49.870Z,8972.00
2023-05-05T11:50:49.852Z,9208.00
2023-05-05T11:51:49.850Z,9164.00
2023-05-05T11:52:49.824Z,9172.00
2023-05-05T11:53:49.819Z,9168.00
2023-05-05T11:54:49.807Z,9276.00
2023-05-05T11:55:49.813Z,9296.00
2023-05-05T11:56:49.904Z,9464.00
2023-05-05T11:57:49.779Z,9608.00
2023-05-05T11:58:49.773Z,9644.00
2023-05-05T11:59:49.845Z,9612.00
2023-05-05T12:00:49.757Z,9704.00
2023-05-05T12:01:49.726Z,9540.00
2023-05-05T12:02:49.876Z,9392.00
2023-05-05T12:03:49.862Z,9252.00
2023-05-05T12:04:49.743Z,9120.00
2023-05-05T12:05:49.697Z,9056.00
2023-05-05T12:06:49.756Z,9020.00
2023-05-05T12:07:49.660Z,9024.00
2023-05-05T12:08:49.650Z,9092.00
2023-05-05T12:09:49.717Z,9144.00
2023-05-05T12:10:49.644Z,9092.00
2023-05-05T12:11:49.620Z,9148.00
2023-05-05T12:12:49.725Z,9176.00
2023-05-05T12:13:49.597Z,9100.00
2023-05-05T12:14:49.597Z,9072.00
2023-05-05T12:15:49.570Z,9068.00
2023-05-05T12:16:49.553Z,9016.00
2023-05-05T12:17:49.632Z,9012.00
2023-05-05T12:18:49.542Z,8944.00
2023-05-05T12:19:49.669Z,8980.00
2023-05-05T12:20:49.515Z,8980.00
2023-05-05T12:21:49.515Z,9036.00
2023-05-05T12:22:49.490Z,9376.00
2023-05-05T12:23:49.690Z,9904.00
2023-05-05T12:24:49.567Z,9816.00
2023-05-05T12:25:49.462Z,9256.00
2023-05-05T12:26:49.453Z,9180.00
2023-05-05T12:27:49.444Z,9416.00
2023-05-05T12:28:49.556Z,9996.00